sensor_id;sensor_type;location;lat;lon;timestamp;temperature;humidity
17452;DHT22;8843;48.838;9.324;2023-08-17T00:01:08;24.20;85.70
17452;DHT22;8843;48.838;9.324;2023-08-17T00:03:35;24.20;85.70
17452;DHT22;8843;48.838;9.324;2023-08-17T00:06:02;24.20;85.70
17452;DHT22;8843;48.838;9.324;2023-08-17T00:08:29;24.20;85.70
17452;DHT22;8843;48.838;9.324;2023-08-17T00:10:55;24.20;85.60
17452;DHT22;8843;48.838;9.324;2023-08-17T00:13:24;24.20;85.80
17452;DHT22;8843;48.838;9.324;2023-08-17T00:15:50;24.20;85.80
17452;DHT22;8843;48.838;9.324;2023-08-17T00:18:17;24.10;85.60
17452;DHT22;8843;48.838;9.324;2023-08-17T00:20:44;24.10;85.80
17452;DHT22;8843;48.838;9.324;2023-08-17T00:23:11;24.10;85.80
17452;DHT22;8843;48.838;9.324;2023-08-17T00:25:38;24.10;85.80
17452;DHT22;8843;48.838;9.324;2023-08-17T00:28:05;24.10;85.70
17452;DHT22;8843;48.838;9.324;2023-08-17T00:30:33;24.10;85.80
17452;DHT22;8843;48.838;9.324;2023-08-17T00:33:01;24.10;85.70
17452;DHT22;8843;48.838;9.324;2023-08-17T00:35:28;24.10;85.70
17452;DHT22;8843;48.838;9.324;2023-08-17T00:37:55;24.10;85.80
17452;DHT22;8843;48.838;9.324;2023-08-17T00:40:22;24.10;85.70
17452;DHT22;8843;48.838;9.324;2023-08-17T00:42:49;24.10;85.70
17452;DHT22;8843;48.838;9.324;2023-08-17T00:45:17;24.10;86.50
17452;DHT22;8843;48.838;9.324;2023-08-17T00:47:46;24.10;85.80
17452;DHT22;8843;48.838;9.324;2023-08-17T00:50:14;24.10;85.80
17452;DHT22;8843;48.838;9.324;2023-08-17T00:52:41;24.10;85.70
17452;DHT22;8843;48.838;9.324;2023-08-17T00:55:10;24.10;86.40
17452;DHT22;8843;48.838;9.324;2023-08-17T00:57:37;24.10;85.80
17452;DHT22;8843;48.838;9.324;2023-08-17T01:00:07;24.10;86.50
17452;DHT22;8843;48.838;9.324;2023-08-17T01:02:35;24.10;85.80
17452;DHT22;8843;48.838;9.324;2023-08-17T01:05:04;24.00;85.70
17452;DHT22;8843;48.838;9.324;2023-08-17T01:07:31;24.10;85.80
17452;DHT22;8843;48.838;9.324;2023-08-17T01:09:58;24.00;85.80
17452;DHT22;8843;48.838;9.324;2023-08-17T01:12:29;24.00;85.90
17452;DHT22;8843;48.838;9.324;2023-08-17T01:15:04;24.00;85.90
17452;DHT22;8843;48.838;9.324;2023-08-17T01:17:35;24.00;85.80
17452;DHT22;8843;48.838;9.324;2023-08-17T01:20:07;24.00;85.80
17452;DHT22;8843;48.838;9.324;2023-08-17T01:22:35;24.00;85.80
17452;DHT22;8843;48.838;9.324;2023-08-17T01:25:05;24.00;85.90
17452;DHT22;8843;48.838;9.324;2023-08-17T01:27:38;24.00;85.80
17452;DHT22;8843;48.838;9.324;2023-08-17T01:30:06;24.00;85.90
17452;DHT22;8843;48.838;9.324;2023-08-17T01:32:37;24.00;85.90
17452;DHT22;8843;48.838;9.324;2023-08-17T01:35:27;24.00;86.00
17452;DHT22;8843;48.838;9.324;2023-08-17T01:37:59;24.00;85.90
17452;DHT22;8843;48.838;9.324;2023-08-17T01:40:28;24.00;85.90
17452;DHT22;8843;48.838;9.324;2023-08-17T01:42:56;24.00;85.90
17452;DHT22;8843;48.838;9.324;2023-08-17T01:45:23;24.00;86.00
17452;DHT22;8843;48.838;9.324;2023-08-17T01:47:50;24.00;86.00
17452;DHT22;8843;48.838;9.324;2023-08-17T01:50:17;24.00;86.00
17452;DHT22;8843;48.838;9.324;2023-08-17T01:52:44;24.00;86.10
17452;DHT22;8843;48.838;9.324;2023-08-17T01:55:11;24.00;86.00
17452;DHT22;8843;48.838;9.324;2023-08-17T01:57:39;24.00;86.10
17452;DHT22;8843;48.838;9.324;2023-08-17T02:00:07;24.00;86.00
17452;DHT22;8843;48.838;9.324;2023-08-17T02:02:36;24.00;86.00
17452;DHT22;8843;48.838;9.324;2023-08-17T02:05:03;24.00;86.00
17452;DHT22;8843;48.838;9.324;2023-08-17T02:07:30;24.00;86.00
17452;DHT22;8843;48.838;9.324;2023-08-17T02:09:57;24.00;86.10
17452;DHT22;8843;48.838;9.324;2023-08-17T02:12:24;23.90;86.00
17452;DHT22;8843;48.838;9.324;2023-08-17T02:14:52;23.90;86.00
17452;DHT22;8843;48.838;9.324;2023-08-17T02:17:19;23.90;86.00
17452;DHT22;8843;48.838;9.324;2023-08-17T02:19:47;23.90;86.00
17452;DHT22;8843;48.838;9.324;2023-08-17T02:22:14;23.90;86.00
17452;DHT22;8843;48.838;9.324;2023-08-17T02:24:41;23.90;86.00
17452;DHT22;8843;48.838;9.324;2023-08-17T02:27:09;23.90;86.00
17452;DHT22;8843;48.838;9.324;2023-08-17T02:29:36;23.90;86.00
17452;DHT22;8843;48.838;9.324;2023-08-17T02:32:05;23.90;86.00
17452;DHT22;8843;48.838;9.324;2023-08-17T02:34:32;23.90;86.10
17452;DHT22;8843;48.838;9.324;2023-08-17T02:36:59;23.90;86.10
17452;DHT22;8843;48.838;9.324;2023-08-17T02:39:26;23.90;86.20
17452;DHT22;8843;48.838;9.324;2023-08-17T02:41:53;23.80;86.10
17452;DHT22;8843;48.838;9.324;2023-08-17T02:44:20;23.80;86.90
17452;DHT22;8843;48.838;9.324;2023-08-17T02:46:47;23.80;86.10
17452;DHT22;8843;48.838;9.324;2023-08-17T02:49:15;23.80;86.10
17452;DHT22;8843;48.838;9.324;2023-08-17T02:51:42;23.80;86.10
17452;DHT22;8843;48.838;9.324;2023-08-17T02:54:09;23.80;86.70
17452;DHT22;8843;48.838;9.324;2023-08-17T02:56:36;23.80;86.00
17452;DHT22;8843;48.838;9.324;2023-08-17T02:59:03;23.80;86.10
17452;DHT22;8843;48.838;9.324;2023-08-17T03:01:30;23.80;86.20
17452;DHT22;8843;48.838;9.324;2023-08-17T03:03:57;23.80;86.10
17452;DHT22;8843;48.838;9.324;2023-08-17T03:06:25;23.80;86.10
17452;DHT22;8843;48.838;9.324;2023-08-17T03:08:52;23.80;86.10
17452;DHT22;8843;48.838;9.324;2023-08-17T03:11:20;23.80;86.10
17452;DHT22;8843;48.838;9.324;2023-08-17T03:13:47;23.80;86.10
17452;DHT22;8843;48.838;9.324;2023-08-17T03:16:14;23.80;86.20
17452;DHT22;8843;48.838;9.324;2023-08-17T03:18:41;23.80;86.20
17452;DHT22;8843;48.838;9.324;2023-08-17T03:21:08;23.80;87.00
17452;DHT22;8843;48.838;9.324;2023-08-17T03:23:36;23.80;86.30
17452;DHT22;8843;48.838;9.324;2023-08-17T03:26:03;23.80;86.30
17452;DHT22;8843;48.838;9.324;2023-08-17T03:28:30;23.80;86.30
17452;DHT22;8843;48.838;9.324;2023-08-17T03:30:57;23.80;86.30
17452;DHT22;8843;48.838;9.324;2023-08-17T03:33:24;23.80;86.30
17452;DHT22;8843;48.838;9.324;2023-08-17T03:35:51;23.80;86.30
17452;DHT22;8843;48.838;9.324;2023-08-17T03:38:18;23.70;87.00
17452;DHT22;8843;48.838;9.324;2023-08-17T03:40:46;23.70;86.30
17452;DHT22;8843;48.838;9.324;2023-08-17T03:43:13;23.70;86.30
17452;DHT22;8843;48.838;9.324;2023-08-17T03:45:41;23.70;86.30
17452;DHT22;8843;48.838;9.324;2023-08-17T03:48:08;23.70;86.30
17452;DHT22;8843;48.838;9.324;2023-08-17T03:50:35;23.70;86.30
17452;DHT22;8843;48.838;9.324;2023-08-17T03:53:02;23.70;86.40
17452;DHT22;8843;48.838;9.324;2023-08-17T03:55:29;23.70;86.40
17452;DHT22;8843;48.838;9.324;2023-08-17T03:57:57;23.70;86.40
17452;DHT22;8843;48.838;9.324;2023-08-17T04:00:24;23.70;86.50
17452;DHT22;8843;48.838;9.324;2023-08-17T04:02:51;23.70;86.50
17452;DHT22;8843;48.838;9.324;2023-08-17T04:05:18;23.70;86.40
17452;DHT22;8843;48.838;9.324;2023-08-17T04:07:44;23.70;86.50
17452;DHT22;8843;48.838;9.324;2023-08-17T04:10:13;23.70;86.50
17452;DHT22;8843;48.838;9.324;2023-08-17T04:12:39;23.70;86.50
17452;DHT22;8843;48.838;9.324;2023-08-17T04:15:08;23.70;86.60
17452;DHT22;8843;48.838;9.324;2023-08-17T04:17:35;23.70;86.60
17452;DHT22;8843;48.838;9.324;2023-08-17T04:20:02;23.70;86.70
17452;DHT22;8843;48.838;9.324;2023-08-17T04:22:30;23.70;86.60
17452;DHT22;8843;48.838;9.324;2023-08-17T04:24:57;23.70;86.60
17452;DHT22;8843;48.838;9.324;2023-08-17T04:27:24;23.60;86.50
17452;DHT22;8843;48.838;9.324;2023-08-17T04:29:50;23.60;86.50
17452;DHT22;8843;48.838;9.324;2023-08-17T04:32:19;23.60;86.50
17452;DHT22;8843;48.838;9.324;2023-08-17T04:34:46;23.60;86.50
17452;DHT22;8843;48.838;9.324;2023-08-17T04:37:13;23.60;86.60
17452;DHT22;8843;48.838;9.324;2023-08-17T04:39:40;23.60;86.70
17452;DHT22;8843;48.838;9.324;2023-08-17T04:42:09;23.60;86.60
17452;DHT22;8843;48.838;9.324;2023-08-17T04:44:36;23.60;86.60
17452;DHT22;8843;48.838;9.324;2023-08-17T04:47:03;23.60;86.60
17452;DHT22;8843;48.838;9.324;2023-08-17T04:49:32;23.60;86.60
17452;DHT22;8843;48.838;9.324;2023-08-17T04:51:59;23.60;86.70
17452;DHT22;8843;48.838;9.324;2023-08-17T04:54:25;23.60;86.70
17452;DHT22;8843;48.838;9.324;2023-08-17T04:56:52;23.60;86.70
17452;DHT22;8843;48.838;9.324;2023-08-17T04:59:19;23.60;86.70
17452;DHT22;8843;48.838;9.324;2023-08-17T05:01:46;23.60;86.90
17452;DHT22;8843;48.838;9.324;2023-08-17T05:04:13;23.60;86.70
17452;DHT22;8843;48.838;9.324;2023-08-17T05:06:42;23.60;86.90
17452;DHT22;8843;48.838;9.324;2023-08-17T05:09:09;23.50;86.90
17452;DHT22;8843;48.838;9.324;2023-08-17T05:11:35;23.50;86.90
17452;DHT22;8843;48.838;9.324;2023-08-17T05:14:03;23.50;86.90
17452;DHT22;8843;48.838;9.324;2023-08-17T05:16:29;23.50;86.90
17452;DHT22;8843;48.838;9.324;2023-08-17T05:18:56;23.50;87.00
17452;DHT22;8843;48.838;9.324;2023-08-17T05:21:25;23.50;87.00
17452;DHT22;8843;48.838;9.324;2023-08-17T05:23:53;23.50;87.00
17452;DHT22;8843;48.838;9.324;2023-08-17T05:26:20;23.50;88.50
17452;DHT22;8843;48.838;9.324;2023-08-17T05:28:47;23.40;87.60
17452;DHT22;8843;48.838;9.324;2023-08-17T05:31:14;23.40;87.40
17452;DHT22;8843;48.838;9.324;2023-08-17T05:33:40;23.50;87.10
17452;DHT22;8843;48.838;9.324;2023-08-17T05:36:08;23.50;87.10
17452;DHT22;8843;48.838;9.324;2023-08-17T05:38:34;23.50;87.10
17452;DHT22;8843;48.838;9.324;2023-08-17T05:41:03;23.50;87.20
17452;DHT22;8843;48.838;9.324;2023-08-17T05:43:30;23.50;87.10
17452;DHT22;8843;48.838;9.324;2023-08-17T05:45:57;23.50;87.10
17452;DHT22;8843;48.838;9.324;2023-08-17T05:48:24;23.40;87.00
17452;DHT22;8843;48.838;9.324;2023-08-17T05:50:52;23.50;87.20
17452;DHT22;8843;48.838;9.324;2023-08-17T05:53:20;23.50;87.10
17452;DHT22;8843;48.838;9.324;2023-08-17T05:55:46;23.40;87.10
17452;DHT22;8843;48.838;9.324;2023-08-17T05:58:15;23.50;87.20
17452;DHT22;8843;48.838;9.324;2023-08-17T06:00:41;23.40;87.20
17452;DHT22;8843;48.838;9.324;2023-08-17T06:03:08;23.50;87.20
17452;DHT22;8843;48.838;9.324;2023-08-17T06:05:36;23.50;87.10
17452;DHT22;8843;48.838;9.324;2023-08-17T06:08:03;23.50;87.10
17452;DHT22;8843;48.838;9.324;2023-08-17T06:10:30;23.50;87.10
17452;DHT22;8843;48.838;9.324;2023-08-17T06:12:57;23.50;87.20
17452;DHT22;8843;48.838;9.324;2023-08-17T06:15:25;23.50;87.00
17452;DHT22;8843;48.838;9.324;2023-08-17T06:17:52;23.30;88.80
17452;DHT22;8843;48.838;9.324;2023-08-17T06:20:20;23.30;89.70
17452;DHT22;8843;48.838;9.324;2023-08-17T06:22:47;23.30;90.00
17452;DHT22;8843;48.838;9.324;2023-08-17T06:25:14;23.30;89.30
17452;DHT22;8843;48.838;9.324;2023-08-17T06:27:42;23.30;89.10
17452;DHT22;8843;48.838;9.324;2023-08-17T06:30:10;23.40;88.90
17452;DHT22;8843;48.838;9.324;2023-08-17T06:32:39;23.40;88.80
17452;DHT22;8843;48.838;9.324;2023-08-17T06:35:07;23.40;88.50
17452;DHT22;8843;48.838;9.324;2023-08-17T06:37:34;23.40;88.60
17452;DHT22;8843;48.838;9.324;2023-08-17T06:40:01;23.40;88.40
17452;DHT22;8843;48.838;9.324;2023-08-17T06:42:29;23.40;88.40
17452;DHT22;8843;48.838;9.324;2023-08-17T06:44:56;23.40;88.50
17452;DHT22;8843;48.838;9.324;2023-08-17T06:47:23;23.40;88.30
17452;DHT22;8843;48.838;9.324;2023-08-17T06:49:51;23.40;88.20
17452;DHT22;8843;48.838;9.324;2023-08-17T06:52:18;23.40;88.10
17452;DHT22;8843;48.838;9.324;2023-08-17T06:54:45;23.40;89.40
17452;DHT22;8843;48.838;9.324;2023-08-17T06:57:11;23.40;88.20
17452;DHT22;8843;48.838;9.324;2023-08-17T06:59:38;23.40;88.10
17452;DHT22;8843;48.838;9.324;2023-08-17T07:02:06;23.40;88.30
17452;DHT22;8843;48.838;9.324;2023-08-17T07:04:33;23.40;88.20
17452;DHT22;8843;48.838;9.324;2023-08-17T07:07:01;23.40;88.20
17452;DHT22;8843;48.838;9.324;2023-08-17T07:09:28;23.40;88.20
17452;DHT22;8843;48.838;9.324;2023-08-17T07:11:55;23.40;88.10
17452;DHT22;8843;48.838;9.324;2023-08-17T07:14:21;23.40;88.10
17452;DHT22;8843;48.838;9.324;2023-08-17T07:16:48;23.40;88.30
17452;DHT22;8843;48.838;9.324;2023-08-17T07:19:15;23.40;88.10
17452;DHT22;8843;48.838;9.324;2023-08-17T07:21:42;23.40;88.30
17452;DHT22;8843;48.838;9.324;2023-08-17T07:24:15;23.40;88.30
17452;DHT22;8843;48.838;9.324;2023-08-17T07:26:42;23.40;88.60
17452;DHT22;8843;48.838;9.324;2023-08-17T07:29:09;23.40;89.20
17452;DHT22;8843;48.838;9.324;2023-08-17T07:31:36;23.40;89.00
17452;DHT22;8843;48.838;9.324;2023-08-17T07:34:04;23.40;88.60
17452;DHT22;8843;48.838;9.324;2023-08-17T07:36:31;23.40;89.20
17452;DHT22;8843;48.838;9.324;2023-08-17T07:38:58;23.40;88.50
17452;DHT22;8843;48.838;9.324;2023-08-17T07:41:26;23.40;88.50
17452;DHT22;8843;48.838;9.324;2023-08-17T07:43:53;23.40;88.50
17452;DHT22;8843;48.838;9.324;2023-08-17T07:46:20;23.40;89.20
17452;DHT22;8843;48.838;9.324;2023-08-17T07:48:47;23.40;90.10
17452;DHT22;8843;48.838;9.324;2023-08-17T07:51:14;23.40;89.30
17452;DHT22;8843;48.838;9.324;2023-08-17T07:53:41;23.40;90.00
17452;DHT22;8843;48.838;9.324;2023-08-17T07:56:08;23.40;89.60
17452;DHT22;8843;48.838;9.324;2023-08-17T07:58:36;23.40;90.30
17452;DHT22;8843;48.838;9.324;2023-08-17T08:01:03;23.40;88.80
17452;DHT22;8843;48.838;9.324;2023-08-17T08:03:31;23.40;90.50
17452;DHT22;8843;48.838;9.324;2023-08-17T08:05:58;23.40;89.40
17452;DHT22;8843;48.838;9.324;2023-08-17T08:08:24;23.40;90.40
17452;DHT22;8843;48.838;9.324;2023-08-17T08:10:53;23.40;89.30
17452;DHT22;8843;48.838;9.324;2023-08-17T08:13:20;23.40;88.50
17452;DHT22;8843;48.838;9.324;2023-08-17T08:15:48;23.40;89.50
17452;DHT22;8843;48.838;9.324;2023-08-17T08:18:15;23.40;89.70
17452;DHT22;8843;48.838;9.324;2023-08-17T08:20:42;23.40;90.10
17452;DHT22;8843;48.838;9.324;2023-08-17T08:23:09;23.40;90.00
17452;DHT22;8843;48.838;9.324;2023-08-17T08:25:35;23.40;90.00
17452;DHT22;8843;48.838;9.324;2023-08-17T08:28:03;23.40;89.20
17452;DHT22;8843;48.838;9.324;2023-08-17T08:30:29;23.40;90.30
17452;DHT22;8843;48.838;9.324;2023-08-17T08:32:58;23.40;90.00
17452;DHT22;8843;48.838;9.324;2023-08-17T08:35:25;23.40;90.40
17452;DHT22;8843;48.838;9.324;2023-08-17T08:37:52;23.40;90.30
17452;DHT22;8843;48.838;9.324;2023-08-17T08:40:27;23.50;90.90
17452;DHT22;8843;48.838;9.324;2023-08-17T08:42:54;23.50;90.90
17452;DHT22;8843;48.838;9.324;2023-08-17T08:45:21;23.50;91.20
17452;DHT22;8843;48.838;9.324;2023-08-17T08:47:49;23.50;90.50
17452;DHT22;8843;48.838;9.324;2023-08-17T08:50:19;23.50;90.30
17452;DHT22;8843;48.838;9.324;2023-08-17T08:52:51;23.40;89.10
17452;DHT22;8843;48.838;9.324;2023-08-17T08:55:23;23.40;90.20
17452;DHT22;8843;48.838;9.324;2023-08-17T08:57:52;23.50;90.40
17452;DHT22;8843;48.838;9.324;2023-08-17T09:00:20;23.50;90.60
17452;DHT22;8843;48.838;9.324;2023-08-17T09:02:48;23.40;89.10
17452;DHT22;8843;48.838;9.324;2023-08-17T09:05:15;23.50;90.90
17452;DHT22;8843;48.838;9.324;2023-08-17T09:07:45;23.50;90.90
17452;DHT22;8843;48.838;9.324;2023-08-17T09:10:14;23.50;91.00
17452;DHT22;8843;48.838;9.324;2023-08-17T09:12:43;23.50;91.00
17452;DHT22;8843;48.838;9.324;2023-08-17T09:15:10;23.60;91.60
17452;DHT22;8843;48.838;9.324;2023-08-17T09:17:37;23.70;91.60
17452;DHT22;8843;48.838;9.324;2023-08-17T09:20:05;23.70;91.80
17452;DHT22;8843;48.838;9.324;2023-08-17T09:22:37;23.80;92.10
17452;DHT22;8843;48.838;9.324;2023-08-17T09:25:07;23.80;91.30
17452;DHT22;8843;48.838;9.324;2023-08-17T09:27:34;23.90;92.30
17452;DHT22;8843;48.838;9.324;2023-08-17T09:30:02;24.10;92.80
17452;DHT22;8843;48.838;9.324;2023-08-17T09:32:31;24.20;92.90
17452;DHT22;8843;48.838;9.324;2023-08-17T09:35:00;24.30;92.70
17452;DHT22;8843;48.838;9.324;2023-08-17T09:37:27;24.50;93.00
17452;DHT22;8843;48.838;9.324;2023-08-17T09:39:55;24.50;92.30
17452;DHT22;8843;48.838;9.324;2023-08-17T09:42:23;24.50;92.50
17452;DHT22;8843;48.838;9.324;2023-08-17T09:44:51;24.60;92.20
17452;DHT22;8843;48.838;9.324;2023-08-17T09:47:18;24.90;92.60
17452;DHT22;8843;48.838;9.324;2023-08-17T09:49:48;24.90;92.40
17452;DHT22;8843;48.838;9.324;2023-08-17T09:52:16;25.20;91.70
17452;DHT22;8843;48.838;9.324;2023-08-17T09:54:43;25.20;91.70
17452;DHT22;8843;48.838;9.324;2023-08-17T09:57:12;25.30;91.50
17452;DHT22;8843;48.838;9.324;2023-08-17T09:59:40;25.10;91.30
17452;DHT22;8843;48.838;9.324;2023-08-17T10:02:17;25.40;91.30
17452;DHT22;8843;48.838;9.324;2023-08-17T10:04:46;25.80;91.30
17452;DHT22;8843;48.838;9.324;2023-08-17T10:07:19;25.70;90.60
17452;DHT22;8843;48.838;9.324;2023-08-17T10:09:53;26.10;90.80
17452;DHT22;8843;48.838;9.324;2023-08-17T10:12:27;26.20;90.30
17452;DHT22;8843;48.838;9.324;2023-08-17T10:15:02;26.30;90.20
17452;DHT22;8843;48.838;9.324;2023-08-17T10:17:37;26.50;89.10
17452;DHT22;8843;48.838;9.324;2023-08-17T10:20:07;26.50;88.50
17452;DHT22;8843;48.838;9.324;2023-08-17T10:22:42;26.70;89.20
17452;DHT22;8843;48.838;9.324;2023-08-17T10:25:11;26.80;88.70
17452;DHT22;8843;48.838;9.324;2023-08-17T10:27:40;26.90;89.40
17452;DHT22;8843;48.838;9.324;2023-08-17T10:30:09;27.10;88.10
17452;DHT22;8843;48.838;9.324;2023-08-17T10:32:37;27.10;84.50
17452;DHT22;8843;48.838;9.324;2023-08-17T10:35:07;27.30;87.90
17452;DHT22;8843;48.838;9.324;2023-08-17T10:37:34;27.60;87.10
17452;DHT22;8843;48.838;9.324;2023-08-17T10:40:01;27.80;86.70
17452;DHT22;8843;48.838;9.324;2023-08-17T10:42:32;27.90;86.60
17452;DHT22;8843;48.838;9.324;2023-08-17T10:45:01;28.00;84.10
17452;DHT22;8843;48.838;9.324;2023-08-17T10:47:31;28.10;86.70
17452;DHT22;8843;48.838;9.324;2023-08-17T10:49:59;28.30;85.20
17452;DHT22;8843;48.838;9.324;2023-08-17T10:52:30;28.50;84.80
17452;DHT22;8843;48.838;9.324;2023-08-17T10:54:59;28.50;82.80
17452;DHT22;8843;48.838;9.324;2023-08-17T10:57:32;28.50;82.60
17452;DHT22;8843;48.838;9.324;2023-08-17T11:00:16;28.50;83.40
17452;DHT22;8843;48.838;9.324;2023-08-17T11:02:52;28.30;78.20
17452;DHT22;8843;48.838;9.324;2023-08-17T11:05:40;28.70;80.70
17452;DHT22;8843;48.838;9.324;2023-08-17T11:08:09;28.70;81.50
17452;DHT22;8843;48.838;9.324;2023-08-17T11:10:36;28.90;81.60
17452;DHT22;8843;48.838;9.324;2023-08-17T11:13:04;29.00;81.70
17452;DHT22;8843;48.838;9.324;2023-08-17T11:15:37;29.10;80.70
17452;DHT22;8843;48.838;9.324;2023-08-17T11:18:06;29.20;81.10
17452;DHT22;8843;48.838;9.324;2023-08-17T11:20:34;29.20;80.40
17452;DHT22;8843;48.838;9.324;2023-08-17T11:23:01;29.30;80.30
17452;DHT22;8843;48.838;9.324;2023-08-17T11:25:28;29.50;79.40
17452;DHT22;8843;48.838;9.324;2023-08-17T11:27:55;29.40;77.60
17452;DHT22;8843;48.838;9.324;2023-08-17T11:30:22;29.30;77.10
17452;DHT22;8843;48.838;9.324;2023-08-17T11:32:50;29.50;77.40
17452;DHT22;8843;48.838;9.324;2023-08-17T11:35:19;29.30;77.70
17452;DHT22;8843;48.838;9.324;2023-08-17T11:37:47;29.50;77.20
17452;DHT22;8843;48.838;9.324;2023-08-17T11:40:15;29.70;76.20
17452;DHT22;8843;48.838;9.324;2023-08-17T11:42:42;29.80;77.80
17452;DHT22;8843;48.838;9.324;2023-08-17T11:45:10;29.80;77.60
17452;DHT22;8843;48.838;9.324;2023-08-17T11:47:38;29.70;78.50
17452;DHT22;8843;48.838;9.324;2023-08-17T11:50:06;29.70;79.20
17452;DHT22;8843;48.838;9.324;2023-08-17T11:52:34;29.60;79.70
17452;DHT22;8843;48.838;9.324;2023-08-17T11:55:02;29.70;80.00
17452;DHT22;8843;48.838;9.324;2023-08-17T11:57:30;29.80;79.30
17452;DHT22;8843;48.838;9.324;2023-08-17T11:59:57;29.80;78.40
17452;DHT22;8843;48.838;9.324;2023-08-17T12:02:25;29.90;78.60
17452;DHT22;8843;48.838;9.324;2023-08-17T12:04:55;30.00;78.80
17452;DHT22;8843;48.838;9.324;2023-08-17T12:07:24;29.90;77.90
17452;DHT22;8843;48.838;9.324;2023-08-17T12:09:53;30.00;78.70
17452;DHT22;8843;48.838;9.324;2023-08-17T12:12:21;30.00;77.30
17452;DHT22;8843;48.838;9.324;2023-08-17T12:14:48;29.70;76.80
17452;DHT22;8843;48.838;9.324;2023-08-17T12:17:16;29.60;77.00
17452;DHT22;8843;48.838;9.324;2023-08-17T12:19:42;29.50;77.20
17452;DHT22;8843;48.838;9.324;2023-08-17T12:22:10;29.40;76.70
17452;DHT22;8843;48.838;9.324;2023-08-17T12:24:39;29.30;78.20
17452;DHT22;8843;48.838;9.324;2023-08-17T12:27:07;29.30;78.30
17452;DHT22;8843;48.838;9.324;2023-08-17T12:29:45;29.30;77.80
17452;DHT22;8843;48.838;9.324;2023-08-17T12:32:13;29.20;78.80
17452;DHT22;8843;48.838;9.324;2023-08-17T12:34:40;28.90;78.30
17452;DHT22;8843;48.838;9.324;2023-08-17T12:37:08;28.70;78.30
17452;DHT22;8843;48.838;9.324;2023-08-17T12:39:35;28.60;77.20
17452;DHT22;8843;48.838;9.324;2023-08-17T12:42:02;28.60;79.30
17452;DHT22;8843;48.838;9.324;2023-08-17T12:44:30;28.60;78.80
17452;DHT22;8843;48.838;9.324;2023-08-17T12:46:57;28.60;79.10
17452;DHT22;8843;48.838;9.324;2023-08-17T12:49:24;28.40;79.60
17452;DHT22;8843;48.838;9.324;2023-08-17T12:51:51;28.40;81.30
17452;DHT22;8843;48.838;9.324;2023-08-17T12:54:18;28.40;80.40
17452;DHT22;8843;48.838;9.324;2023-08-17T12:56:45;28.40;80.10
17452;DHT22;8843;48.838;9.324;2023-08-17T12:59:12;28.20;80.30
17452;DHT22;8843;48.838;9.324;2023-08-17T13:01:40;28.10;80.50
17452;DHT22;8843;48.838;9.324;2023-08-17T13:04:07;28.00;81.00
17452;DHT22;8843;48.838;9.324;2023-08-17T13:06:34;27.90;80.50
17452;DHT22;8843;48.838;9.324;2023-08-17T13:09:01;27.90;80.70
17452;DHT22;8843;48.838;9.324;2023-08-17T13:11:28;27.90;81.40
17452;DHT22;8843;48.838;9.324;2023-08-17T13:13:55;27.80;80.80
17452;DHT22;8843;48.838;9.324;2023-08-17T13:16:22;27.80;81.20
17452;DHT22;8843;48.838;9.324;2023-08-17T13:18:50;27.80;80.90
17452;DHT22;8843;48.838;9.324;2023-08-17T13:21:17;27.60;80.40
17452;DHT22;8843;48.838;9.324;2023-08-17T13:23:45;27.60;80.20
17452;DHT22;8843;48.838;9.324;2023-08-17T13:26:12;27.50;80.10
17452;DHT22;8843;48.838;9.324;2023-08-17T13:28:39;27.40;80.00
17452;DHT22;8843;48.838;9.324;2023-08-17T13:31:05;27.30;79.30
17452;DHT22;8843;48.838;9.324;2023-08-17T13:33:32;27.30;79.80
17452;DHT22;8843;48.838;9.324;2023-08-17T13:36:01;27.20;79.30
17452;DHT22;8843;48.838;9.324;2023-08-17T13:38:28;27.20;79.70
17452;DHT22;8843;48.838;9.324;2023-08-17T13:40:55;27.10;79.50
17452;DHT22;8843;48.838;9.324;2023-08-17T13:43:22;27.10;80.20
17452;DHT22;8843;48.838;9.324;2023-08-17T13:45:49;27.00;80.40
17452;DHT22;8843;48.838;9.324;2023-08-17T13:48:15;26.70;81.40
17452;DHT22;8843;48.838;9.324;2023-08-17T13:50:42;26.50;81.80
17452;DHT22;8843;48.838;9.324;2023-08-17T13:53:11;26.50;85.30
17452;DHT22;8843;48.838;9.324;2023-08-17T13:55:39;26.30;84.10
17452;DHT22;8843;48.838;9.324;2023-08-17T13:58:05;26.40;86.50
17452;DHT22;8843;48.838;9.324;2023-08-17T14:00:35;26.40;87.00
17452;DHT22;8843;48.838;9.324;2023-08-17T14:03:02;26.30;85.80
17452;DHT22;8843;48.838;9.324;2023-08-17T14:05:29;26.20;87.60
17452;DHT22;8843;48.838;9.324;2023-08-17T14:07:56;26.20;88.30
17452;DHT22;8843;48.838;9.324;2023-08-17T14:10:24;26.20;89.10
17452;DHT22;8843;48.838;9.324;2023-08-17T14:12:51;26.00;86.20
17452;DHT22;8843;48.838;9.324;2023-08-17T14:15:18;26.00;88.60
17452;DHT22;8843;48.838;9.324;2023-08-17T14:17:45;25.90;89.00
17452;DHT22;8843;48.838;9.324;2023-08-17T14:20:12;26.10;89.90
17452;DHT22;8843;48.838;9.324;2023-08-17T14:22:40;26.10;89.60
17452;DHT22;8843;48.838;9.324;2023-08-17T14:25:07;26.10;89.40
17452;DHT22;8843;48.838;9.324;2023-08-17T14:27:35;26.10;89.80
17452;DHT22;8843;48.838;9.324;2023-08-17T14:30:02;26.00;89.00
17452;DHT22;8843;48.838;9.324;2023-08-17T14:32:29;26.00;89.20
17452;DHT22;8843;48.838;9.324;2023-08-17T14:34:56;25.90;89.70
17452;DHT22;8843;48.838;9.324;2023-08-17T14:37:23;25.90;89.90
17452;DHT22;8843;48.838;9.324;2023-08-17T14:39:50;25.90;89.90
17452;DHT22;8843;48.838;9.324;2023-08-17T14:42:17;25.90;89.20
17452;DHT22;8843;48.838;9.324;2023-08-17T14:44:45;25.80;89.30
17452;DHT22;8843;48.838;9.324;2023-08-17T14:47:12;25.90;89.70
17452;DHT22;8843;48.838;9.324;2023-08-17T14:49:38;25.80;90.10
17452;DHT22;8843;48.838;9.324;2023-08-17T14:52:05;25.80;89.60
17452;DHT22;8843;48.838;9.324;2023-08-17T14:54:32;25.70;89.90
17452;DHT22;8843;48.838;9.324;2023-08-17T14:56:59;25.70;89.70
17452;DHT22;8843;48.838;9.324;2023-08-17T14:59:26;25.70;89.30
17452;DHT22;8843;48.838;9.324;2023-08-17T15:01:54;25.70;89.30
17452;DHT22;8843;48.838;9.324;2023-08-17T15:04:22;25.70;89.70
17452;DHT22;8843;48.838;9.324;2023-08-17T15:06:49;25.70;90.00
17452;DHT22;8843;48.838;9.324;2023-08-17T15:09:15;25.70;90.10
17452;DHT22;8843;48.838;9.324;2023-08-17T15:11:42;25.50;90.50
17452;DHT22;8843;48.838;9.324;2023-08-17T15:14:10;25.60;90.30
17452;DHT22;8843;48.838;9.324;2023-08-17T15:16:37;25.60;90.60
17452;DHT22;8843;48.838;9.324;2023-08-17T15:19:05;25.60;90.60
17452;DHT22;8843;48.838;9.324;2023-08-17T15:21:32;25.70;91.00
17452;DHT22;8843;48.838;9.324;2023-08-17T15:23:59;25.70;90.70
17452;DHT22;8843;48.838;9.324;2023-08-17T15:26:26;25.60;90.60
17452;DHT22;8843;48.838;9.324;2023-08-17T15:28:52;25.60;90.90
17452;DHT22;8843;48.838;9.324;2023-08-17T15:31:19;25.50;90.40
17452;DHT22;8843;48.838;9.324;2023-08-17T15:33:46;25.30;90.10
17452;DHT22;8843;48.838;9.324;2023-08-17T15:36:14;25.10;89.80
17452;DHT22;8843;48.838;9.324;2023-08-17T15:38:43;25.30;91.00
17452;DHT22;8843;48.838;9.324;2023-08-17T15:41:10;25.40;90.30
17452;DHT22;8843;48.838;9.324;2023-08-17T15:43:37;25.30;90.80
17452;DHT22;8843;48.838;9.324;2023-08-17T15:46:04;25.20;90.00
17452;DHT22;8843;48.838;9.324;2023-08-17T15:48:32;25.10;90.90